Time;durP1;ratioP1;P1;durP2;ratioP2;P2;SDS_P1;SDS_P2;PMS_P1;PMS_P2;Temp;Humidity;BMP_temperature;BMP_pressure;BME280_temperature;BME280_humidity;BME280_pressure;Samples;Min_cycle;Max_cycle;Signal;HPM_P1;HPM_P2
2022/03/06 00:02:03;;;;;;;119.47;51.03;;;;;;;;;;4778361;30;20056;-80
2022/03/06 00:04:48;;;;;;;107.55;46.97;;;;;;;;;;4771837;30;20052;-81
2022/03/06 00:07:34;;;;;;;100.15;45.42;;;;;;;;;;4778310;30;20056;-80
2022/03/06 00:10:20;;;;;;;128.63;53.78;;;;;;;;;;4777180;30;20052;-79
2022/03/06 00:13:05;;;;;;;112.53;51.55;;;;;;;;;;4772128;30;20064;-79
2022/03/06 00:15:51;;;;;;;107.53;49.13;;;;;;;;;;4771144;30;20051;-80
2022/03/06 00:18:40;;;;;;;123.47;54.53;;;;;;;;;;4769654;30;20060;-79
2022/03/06 00:21:26;;;;;;;190.60;91.97;;;;;;;;;;4769832;30;20048;-80
2022/03/06 00:24:11;;;;;;;143.60;68.75;;;;;;;;;;4770743;30;20085;-82
2022/03/06 00:26:58;;;;;;;131.02;57.65;;;;;;;;;;4771037;30;20052;-81
2022/03/06 00:29:43;;;;;;;135.68;60.55;;;;;;;;;;4772376;30;20067;-79
2022/03/06 00:32:28;;;;;;;313.80;132.80;;;;;;;;;;4772948;30;20051;-79
2022/03/06 00:35:14;;;;;;;223.10;90.82;;;;;;;;;;4772708;30;20044;-78
2022/03/06 00:37:59;;;;;;;169.15;75.15;;;;;;;;;;4779408;30;20044;-80
2022/03/06 00:40:45;;;;;;;140.70;63.33;;;;;;;;;;4772490;30;20483;-81
2022/03/06 00:43:31;;;;;;;126.10;53.88;;;;;;;;;;4772372;30;20051;-79
2022/03/06 00:46:16;;;;;;;123.97;53.05;;;;;;;;;;4774984;30;20048;-80
2022/03/06 00:49:02;;;;;;;118.82;50.83;;;;;;;;;;4773607;30;20044;-81
2022/03/06 00:51:47;;;;;;;79.85;37.05;;;;;;;;;;4772205;30;20060;-81
2022/03/06 00:54:33;;;;;;;119.07;52.92;;;;;;;;;;4772539;30;20044;-80
2022/03/06 00:57:22;;;;;;;121.95;57.20;;;;;;;;;;4772248;30;20048;-81
2022/03/06 01:00:08;;;;;;;104.93;44.42;;;;;;;;;;4772234;30;20052;-80
2022/03/06 01:02:53;;;;;;;99.05;44.25;;;;;;;;;;4772075;30;20410;-80
2022/03/06 01:05:39;;;;;;;165.80;77.35;;;;;;;;;;4772174;30;20043;-81
2022/03/06 01:08:25;;;;;;;127.03;57.83;;;;;;;;;;4772325;30;20514;-81
2022/03/06 01:11:10;;;;;;;141.48;62.00;;;;;;;;;;4772217;30;20048;-81
2022/03/06 01:13:56;;;;;;;131.40;61.03;;;;;;;;;;4778146;30;20051;-80
2022/03/06 01:16:43;;;;;;;108.88;50.15;;;;;;;;;;4777805;30;20047;-81
2022/03/06 01:19:28;;;;;;;128.38;56.25;;;;;;;;;;4772117;30;20052;-81
2022/03/06 01:22:14;;;;;;;125.70;55.05;;;;;;;;;;4771759;30;20047;-79
2022/03/06 01:24:59;;;;;;;122.03;52.55;;;;;;;;;;4771513;30;20051;-81
2022/03/06 01:27:45;;;;;;;113.45;50.38;;;;;;;;;;4777568;30;20047;-83
2022/03/06 01:30:31;;;;;;;127.43;52.70;;;;;;;;;;4771832;30;20051;-83
2022/03/06 01:33:16;;;;;;;119.78;51.42;;;;;;;;;;4776457;30;20040;-83
2022/03/06 01:36:02;;;;;;;116.50;52.40;;;;;;;;;;4772210;30;20052;-82
2022/03/06 01:38:47;;;;;;;142.98;58.63;;;;;;;;;;4771730;30;20407;-83
2022/03/06 01:41:34;;;;;;;158.98;71.50;;;;;;;;;;4770550;30;20056;-81
2022/03/06 01:44:22;;;;;;;154.23;67.80;;;;;;;;;;4771317;30;20048;-80
2022/03/06 01:47:07;;;;;;;151.77;66.57;;;;;;;;;;4776256;30;20047;-80
2022/03/06 01:49:53;;;;;;;161.68;68.60;;;;;;;;;;4771742;30;20482;-82
2022/03/06 01:52:40;;;;;;;156.18;66.07;;;;;;;;;;4776306;30;20430;-82
2022/03/06 01:55:26;;;;;;;149.43;66.78;;;;;;;;;;4776225;30;20431;-81
2022/03/06 01:58:12;;;;;;;132.40;57.50;;;;;;;;;;4771221;30;20131;-82
2022/03/06 02:00:58;;;;;;;135.65;57.53;;;;;;;;;;4771450;30;20047;-81
2022/03/06 02:03:43;;;;;;;141.65;63.13;;;;;;;;;;4757868;30;20063;-81
2022/03/06 02:06:29;;;;;;;139.55;59.47;;;;;;;;;;4776822;30;20047;-80
2022/03/06 02:09:15;;;;;;;139.90;59.33;;;;;;;;;;4770996;30;20407;-81
2022/03/06 02:15:08;;;;;;;112.50;50.95;;;;;;;;;;4772237;30;20047;-80
2022/03/06 02:17:55;;;;;;;108.18;47.95;;;;;;;;;;4793405;30;20051;-81
2022/03/06 02:20:41;;;;;;;104.47;49.28;;;;;;;;;;4775560;30;20044;-82
2022/03/06 02:23:27;;;;;;;74.53;37.28;;;;;;;;;;4771295;30;20048;-82
2022/03/06 02:26:12;;;;;;;70.97;37.65;;;;;;;;;;4770505;30;20056;-82
2022/03/06 02:28:58;;;;;;;61.22;31.48;;;;;;;;;;4771193;30;20047;-82
2022/03/06 02:31:43;;;;;;;64.38;32.92;;;;;;;;;;4771122;30;20059;-83
2022/03/06 02:34:29;;;;;;;65.43;33.13;;;;;;;;;;4770667;30;20052;-82
2022/03/06 02:37:18;;;;;;;71.25;34.60;;;;;;;;;;4771291;30;20156;-82
2022/03/06 02:40:06;;;;;;;66.85;34.28;;;;;;;;;;4770738;30;20056;-82
2022/03/06 02:42:53;;;;;;;64.60;31.42;;;;;;;;;;4774598;30;20047;-81
2022/03/06 02:45:40;;;;;;;66.72;34.22;;;;;;;;;;4775673;30;20052;-82
2022/03/06 02:48:26;;;;;;;59.60;31.38;;;;;;;;;;4776078;30;20052;-82
2022/03/06 02:51:12;;;;;;;63.88;31.45;;;;;;;;;;4775842;30;20063;-80
2022/03/06 02:53:57;;;;;;;57.40;30.25;;;;;;;;;;4775762;30;20048;-81
2022/03/06 02:56:43;;;;;;;48.08;25.83;;;;;;;;;;4776488;30;20036;-81
2022/03/06 02:59:28;;;;;;;53.58;27.48;;;;;;;;;;4784681;30;20047;-81
2022/03/06 03:02:14;;;;;;;56.00;29.05;;;;;;;;;;4775234;30;20048;-82
2022/03/06 03:05:00;;;;;;;63.88;33.35;;;;;;;;;;4770688;30;20048;-81
2022/03/06 03:07:48;;;;;;;58.22;29.88;;;;;;;;;;4771200;30;20064;-80
2022/03/06 03:10:34;;;;;;;72.25;35.08;;;;;;;;;;4770479;30;20047;-81
2022/03/06 03:13:19;;;;;;;71.28;33.83;;;;;;;;;;4771079;30;20052;-82
2022/03/06 03:16:06;;;;;;;71.50;34.50;;;;;;;;;;4770529;30;20040;-82
2022/03/06 03:18:51;;;;;;;72.30;35.30;;;;;;;;;;4770819;30;20056;-83
2022/03/06 03:21:37;;;;;;;61.03;32.72;;;;;;;;;;4770562;30;20482;-83
2022/03/06 03:24:23;;;;;;;62.83;32.88;;;;;;;;;;4771516;30;20056;-83
2022/03/06 03:27:09;;;;;;;66.25;33.13;;;;;;;;;;4774474;30;20059;-83
2022/03/06 03:29:54;;;;;;;67.32;31.92;;;;;;;;;;4775734;30;20490;-83
2022/03/06 03:32:40;;;;;;;66.28;31.45;;;;;;;;;;4773711;30;20434;-82
2022/03/06 03:35:26;;;;;;;63.70;32.25;;;;;;;;;;4774131;30;20052;-82
2022/03/06 03:38:11;;;;;;;56.40;31.15;;;;;;;;;;4773543;30;20060;-83
2022/03/06 03:40:57;;;;;;;57.20;29.98;;;;;;;;;;4773898;30;20048;-83
2022/03/06 03:43:42;;;;;;;62.88;32.85;;;;;;;;;;4775952;30;20052;-83
2022/03/06 03:46:28;;;;;;;62.33;31.77;;;;;;;;;;4776461;30;20482;-83
2022/03/06 03:49:14;;;;;;;54.17;30.92;;;;;;;;;;4778764;30;20048;-83
2022/03/06 03:51:59;;;;;;;60.08;31.27;;;;;;;;;;4772908;30;20055;-83
2022/03/06 03:54:45;;;;;;;55.58;30.80;;;;;;;;;;4773501;30;20181;-83
2022/03/06 03:57:30;;;;;;;59.53;31.17;;;;;;;;;;4773689;30;20043;-83
2022/03/06 04:00:16;;;;;;;58.38;30.85;;;;;;;;;;4773591;30;20059;-82
2022/03/06 04:03:01;;;;;;;61.35;31.25;;;;;;;;;;4773125;30;20043;-82
2022/03/06 04:05:47;;;;;;;59.88;29.73;;;;;;;;;;4773282;30;20407;-82
2022/03/06 04:08:33;;;;;;;61.63;32.97;;;;;;;;;;4773337;30;20043;-82
2022/03/06 04:11:18;;;;;;;65.72;34.38;;;;;;;;;;4778829;30;20055;-82
2022/03/06 04:14:04;;;;;;;68.68;34.90;;;;;;;;;;4773245;30;20051;-82
2022/03/06 04:16:49;;;;;;;71.35;36.05;;;;;;;;;;4773069;30;20052;-82
2022/03/06 04:19:35;;;;;;;76.78;37.38;;;;;;;;;;4772831;30;20052;-82
2022/03/06 04:22:21;;;;;;;81.32;40.70;;;;;;;;;;4773131;30;20055;-83
2022/03/06 04:25:06;;;;;;;101.97;50.17;;;;;;;;;;4772999;30;20047;-82
2022/03/06 04:27:52;;;;;;;89.82;42.50;;;;;;;;;;4775235;30;20475;-82
2022/03/06 04:30:37;;;;;;;83.07;40.78;;;;;;;;;;4775804;30;20047;-82
2022/03/06 04:33:23;;;;;;;73.57;35.35;;;;;;;;;;4785344;29;20043;-82
2022/03/06 04:36:10;;;;;;;73.50;37.80;;;;;;;;;;4789485;29;20047;-82
2022/03/06 04:38:55;;;;;;;62.25;33.08;;;;;;;;;;4775359;30;20051;-82
2022/03/06 04:41:41;;;;;;;59.78;31.50;;;;;;;;;;4772548;30;20051;-82
2022/03/06 04:44:26;;;;;;;54.25;28.60;;;;;;;;;;4772874;30;20475;-82
2022/03/06 04:47:12;;;;;;;73.03;38.55;;;;;;;;;;4772468;30;20040;-83
2022/03/06 04:49:58;;;;;;;47.63;27.08;;;;;;;;;;4778554;30;20048;-82
2022/03/06 04:52:43;;;;;;;37.70;22.38;;;;;;;;;;4772370;30;20055;-83
2022/03/06 04:55:28;;;;;;;29.83;17.08;;;;;;;;;;4772285;30;20047;-83
2022/03/06 04:58:14;;;;;;;40.92;24.23;;;;;;;;;;4772573;30;20052;-83
2022/03/06 05:01:00;;;;;;;34.00;17.90;;;;;;;;;;4772399;30;20055;-82
2022/03/06 05:03:46;;;;;;;25.38;15.18;;;;;;;;;;4772452;30;20490;-82
2022/03/06 05:06:31;;;;;;;24.90;14.93;;;;;;;;;;4772418;30;20052;-83
2022/03/06 05:09:17;;;;;;;18.63;11.63;;;;;;;;;;4772058;30;20044;-83
2022/03/06 05:12:02;;;;;;;28.23;15.00;;;;;;;;;;4775123;30;20047;-81
2022/03/06 05:14:48;;;;;;;25.27;14.18;;;;;;;;;;4773323;30;20051;-82
2022/03/06 05:17:33;;;;;;;32.08;18.35;;;;;;;;;;4772221;30;20056;-83
2022/03/06 05:20:19;;;;;;;36.08;18.67;;;;;;;;;;4772186;30;20486;-83
2022/03/06 05:23:05;;;;;;;27.42;15.52;;;;;;;;;;4771905;30;20403;-82
2022/03/06 05:25:52;;;;;;;25.10;15.23;;;;;;;;;;4771705;30;20043;-83
2022/03/06 05:28:37;;;;;;;24.63;15.23;;;;;;;;;;4771783;30;20056;-83
2022/03/06 05:31:23;;;;;;;19.38;12.20;;;;;;;;;;4771963;30;20052;-82
2022/03/06 05:34:09;;;;;;;20.75;12.65;;;;;;;;;;4772046;30;20052;-82
2022/03/06 05:36:54;;;;;;;24.92;13.65;;;;;;;;;;4771856;30;20048;-83
2022/03/06 05:39:40;;;;;;;22.13;13.93;;;;;;;;;;4772022;30;20055;-83
2022/03/06 05:42:26;;;;;;;24.95;15.68;;;;;;;;;;4771433;30;20055;-82
2022/03/06 05:45:11;;;;;;;22.73;14.70;;;;;;;;;;4771745;30;20060;-82
2022/03/06 05:47:58;;;;;;;23.45;14.40;;;;;;;;;;4771147;30;20048;-80
2022/03/06 05:50:43;;;;;;;24.55;14.00;;;;;;;;;;4771143;30;20052;-81
2022/03/06 05:53:29;;;;;;;37.03;19.40;;;;;;;;;;4771764;30;20043;-81
2022/03/06 05:56:14;;;;;;;30.75;17.48;;;;;;;;;;4777102;30;20044;-81
2022/03/06 05:59:01;;;;;;;28.63;17.38;;;;;;;;;;4771785;30;20047;-82
2022/03/06 06:01:46;;;;;;;29.60;17.60;;;;;;;;;;4771699;30;20052;-80
2022/03/06 06:04:32;;;;;;;30.30;18.55;;;;;;;;;;4771330;30;20052;-80
2022/03/06 06:07:18;;;;;;;26.25;16.42;;;;;;;;;;4771518;30;20051;-80
2022/03/06 06:10:04;;;;;;;26.88;15.70;;;;;;;;;;4771610;30;20048;-81
2022/03/06 06:12:50;;;;;;;27.50;16.05;;;;;;;;;;4771195;30;20063;-80
2022/03/06 06:15:37;;;;;;;28.33;16.35;;;;;;;;;;4777178;30;20048;-81
2022/03/06 06:18:22;;;;;;;24.95;17.05;;;;;;;;;;4771024;30;20055;-80
2022/03/06 06:21:10;;;;;;;32.38;17.30;;;;;;;;;;4771746;30;20056;-79
2022/03/06 06:23:55;;;;;;;27.23;18.20;;;;;;;;;;4772439;30;20063;-80
2022/03/06 06:26:42;;;;;;;26.23;16.08;;;;;;;;;;4771586;30;20043;-81
2022/03/06 06:29:28;;;;;;;105.35;43.50;;;;;;;;;;4776973;30;20063;-81
2022/03/06 06:32:14;;;;;;;163.93;61.65;;;;;;;;;;4770880;30;20056;-81
2022/03/06 06:34:59;;;;;;;140.63;59.38;;;;;;;;;;4770879;30;20061;-81
2022/03/06 06:37:44;;;;;;;133.88;72.18;;;;;;;;;;4770423;30;20043;-81
2022/03/06 06:40:30;;;;;;;75.82;45.00;;;;;;;;;;4778065;30;20051;-81
2022/03/06 06:43:18;;;;;;;30.73;18.02;;;;;;;;;;4771121;30;20044;-82
2022/03/06 06:46:04;;;;;;;31.02;18.08;;;;;;;;;;4770927;30;20056;-83
2022/03/06 06:48:50;;;;;;;26.33;15.90;;;;;;;;;;4782290;30;20040;-81
2022/03/06 06:51:36;;;;;;;52.10;27.17;;;;;;;;;;4782931;30;20064;-82
2022/03/06 06:54:21;;;;;;;111.78;41.45;;;;;;;;;;4771162;30;20056;-82
2022/03/06 06:57:06;;;;;;;77.45;32.00;;;;;;;;;;4757536;30;20410;-83
2022/03/06 06:59:52;;;;;;;31.42;18.13;;;;;;;;;;4777633;30;20043;-81
2022/03/06 07:02:38;;;;;;;39.65;20.30;;;;;;;;;;4774173;30;20055;-81
2022/03/06 07:05:23;;;;;;;28.55;17.25;;;;;;;;;;4774434;30;20052;-81
2022/03/06 07:08:09;;;;;;;30.65;18.35;;;;;;;;;;4773954;30;20052;-82
2022/03/06 07:10:54;;;;;;;25.85;15.93;;;;;;;;;;4774092;30;20491;-81
2022/03/06 07:13:40;;;;;;;24.73;15.70;;;;;;;;;;4773613;30;20059;-81
2022/03/06 07:16:25;;;;;;;30.75;18.23;;;;;;;;;;4779222;30;20044;-82
2022/03/06 07:19:12;;;;;;;34.47;17.77;;;;;;;;;;4773725;30;20498;-82
2022/03/06 07:30:41;;;;;;;31.70;19.20;;;;;;;;;;4779689;30;20035;-82
2022/03/06 07:33:27;;;;;;;27.35;17.50;;;;;;;;;;4779132;30;20055;-87
2022/03/06 07:36:12;;;;;;;27.00;15.88;;;;;;;;;;4778603;30;20052;-79
2022/03/06 07:38:58;;;;;;;27.25;18.33;;;;;;;;;;4773754;30;20051;-81
2022/03/06 07:41:44;;;;;;;29.67;17.15;;;;;;;;;;4773308;30;20044;-80
2022/03/06 07:44:29;;;;;;;29.73;19.17;;;;;;;;;;4773496;30;20063;-81
2022/03/06 07:47:15;;;;;;;30.23;17.60;;;;;;;;;;4773407;30;20518;-81
2022/03/06 07:50:01;;;;;;;20.27;13.70;;;;;;;;;;4773026;30;20047;-82
2022/03/06 07:52:46;;;;;;;27.83;17.30;;;;;;;;;;4773105;30;20048;-80
2022/03/06 07:55:31;;;;;;;24.45;16.02;;;;;;;;;;4773150;30;20052;-80
2022/03/06 07:58:17;;;;;;;26.05;16.88;;;;;;;;;;4773244;30;20402;-80
2022/03/06 08:01:03;;;;;;;28.25;18.35;;;;;;;;;;4779164;30;20487;-80
2022/03/06 08:03:48;;;;;;;25.17;15.95;;;;;;;;;;4779030;30;20048;-80
2022/03/06 08:06:34;;;;;;;31.30;17.55;;;;;;;;;;4772604;30;20048;-81
2022/03/06 08:09:19;;;;;;;29.10;15.45;;;;;;;;;;4780049;30;20052;-80
2022/03/06 08:12:06;;;;;;;22.35;12.50;;;;;;;;;;4778481;30;20047;-80
2022/03/06 08:14:51;;;;;;;27.38;15.50;;;;;;;;;;4772941;30;20051;-81
2022/03/06 08:17:36;;;;;;;20.63;11.95;;;;;;;;;;4777607;30;20044;-80
2022/03/06 08:20:22;;;;;;;39.72;19.45;;;;;;;;;;4771780;30;20047;-81
2022/03/06 08:23:07;;;;;;;22.83;12.77;;;;;;;;;;4771690;30;20415;-82
2022/03/06 08:25:53;;;;;;;31.45;18.13;;;;;;;;;;4777658;30;20048;-80
2022/03/06 08:28:40;;;;;;;18.55;12.18;;;;;;;;;;4776955;30;20051;-81
2022/03/06 08:31:25;;;;;;;24.98;14.48;;;;;;;;;;4786156;30;20052;-81
2022/03/06 08:34:11;;;;;;;25.00;13.30;;;;;;;;;;4778637;30;20056;-79
2022/03/06 08:36:57;;;;;;;9.60;6.70;;;;;;;;;;4779311;30;20051;-81
2022/03/06 08:39:42;;;;;;;31.02;18.40;;;;;;;;;;4777533;30;20048;-81
2022/03/06 08:42:28;;;;;;;6.50;5.05;;;;;;;;;;4772551;30;20055;-81
2022/03/06 08:45:15;;;;;;;28.80;18.23;;;;;;;;;;4772504;30;20051;-81
2022/03/06 08:48:00;;;;;;;29.65;17.30;;;;;;;;;;4772462;30;20043;-81
2022/03/06 08:50:45;;;;;;;18.17;11.93;;;;;;;;;;4773286;30;20052;-82
2022/03/06 08:53:31;;;;;;;25.88;15.63;;;;;;;;;;4780008;30;20052;-82
2022/03/06 08:56:17;;;;;;;20.92;13.25;;;;;;;;;;4772914;30;20490;-82
2022/03/06 08:59:02;;;;;;;10.48;6.90;;;;;;;;;;4777088;30;20051;-81
2022/03/06 09:01:47;;;;;;;36.25;20.33;;;;;;;;;;4777287;30;20051;-83
2022/03/06 09:04:33;;;;;;;20.33;11.13;;;;;;;;;;4795791;29;20032;-81
2022/03/06 09:07:18;;;;;;;24.05;12.18;;;;;;;;;;4771586;30;20434;-79
2022/03/06 09:10:04;;;;;;;62.50;27.23;;;;;;;;;;4774028;30;20051;-89
2022/03/06 09:12:50;;;;;;;138.95;65.80;;;;;;;;;;4771345;30;20064;-89
2022/03/06 09:15:36;;;;;;;61.35;35.15;;;;;;;;;;4770930;30;20051;-82
2022/03/06 09:18:21;;;;;;;303.73;142.77;;;;;;;;;;4778058;30;20040;-86
2022/03/06 09:21:14;;;;;;;262.95;152.02;;;;;;;;;;4765208;30;20064;-88
2022/03/06 09:24:00;;;;;;;91.68;60.60;;;;;;;;;;4758780;30;20051;-88
2022/03/06 09:26:47;;;;;;;23.60;14.13;;;;;;;;;;4758497;30;20052;-86
2022/03/06 09:29:33;;;;;;;17.90;10.90;;;;;;;;;;4776785;30;20055;-87
2022/03/06 09:32:18;;;;;;;20.83;12.23;;;;;;;;;;4780733;30;20055;-86
2022/03/06 09:35:05;;;;;;;34.30;19.17;;;;;;;;;;4786951;30;20059;-84
2022/03/06 09:37:51;;;;;;;28.33;15.45;;;;;;;;;;4785395;30;20043;-85
2022/03/06 09:40:41;;;;;;;17.27;10.55;;;;;;;;;;4772620;30;20514;-85
2022/03/06 09:43:28;;;;;;;18.40;12.43;;;;;;;;;;4773009;30;20044;-78
2022/03/06 09:46:14;;;;;;;21.42;13.05;;;;;;;;;;4772166;30;20052;-82
2022/03/06 09:49:01;;;;;;;42.30;22.25;;;;;;;;;;4771043;30;20411;-83
2022/03/06 09:51:47;;;;;;;24.75;12.13;;;;;;;;;;4772055;30;20051;-82
2022/03/06 09:54:33;;;;;;;21.90;13.02;;;;;;;;;;4771394;30;20402;-81
2022/03/06 09:57:19;;;;;;;23.27;14.32;;;;;;;;;;4771211;30;20118;-81
2022/03/06 10:00:09;;;;;;;10.70;7.47;;;;;;;;;;4771828;30;20066;-81
2022/03/06 10:03:00;;;;;;;14.73;9.07;;;;;;;;;;4772110;30;20055;-82
2022/03/06 10:05:49;;;;;;;34.10;15.70;;;;;;;;;;4771466;30;20047;-81
2022/03/06 10:08:35;;;;;;;17.15;9.55;;;;;;;;;;4776749;30;20052;-82
2022/03/06 10:11:21;;;;;;;14.30;8.95;;;;;;;;;;4771628;30;20490;-83
2022/03/06 10:14:06;;;;;;;19.67;11.98;;;;;;;;;;4771190;30;20047;-82
2022/03/06 10:17:15;;;;;;;21.58;12.10;;;;;;;;;;4757850;30;20047;-81
2022/03/06 10:20:09;;;;;;;20.67;11.82;;;;;;;;;;4782962;30;20052;-80
2022/03/06 10:22:54;;;;;;;18.75;11.63;;;;;;;;;;4771815;30;20043;-82
2022/03/06 10:25:41;;;;;;;13.48;7.88;;;;;;;;;;4772008;30;20059;-81
2022/03/06 10:28:25;;;;;;;31.95;19.85;;;;;;;;;;4772034;30;20499;-82
2022/03/06 10:31:11;;;;;;;25.65;15.32;;;;;;;;;;4776547;30;20047;-83
2022/03/06 10:34:16;;;;;;;23.30;11.95;;;;;;;;;;4771020;30;20114;-81
2022/03/06 10:37:03;;;;;;;38.40;20.23;;;;;;;;;;4776609;30;20486;-82
2022/03/06 10:39:48;;;;;;;74.10;37.13;;;;;;;;;;4770817;30;20059;-82
2022/03/06 10:42:34;;;;;;;32.58;19.83;;;;;;;;;;4770776;30;20055;-81
2022/03/06 10:45:26;;;;;;;31.20;17.65;;;;;;;;;;4770634;30;20051;-82
2022/03/06 10:48:11;;;;;;;19.83;13.10;;;;;;;;;;4770744;30;20475;-82
2022/03/06 10:51:03;;;;;;;11.63;7.53;;;;;;;;;;4773014;30;20055;-82
2022/03/06 10:53:54;;;;;;;15.68;9.98;;;;;;;;;;4770566;30;20048;-82
2022/03/06 10:56:46;;;;;;;31.63;19.83;;;;;;;;;;4770913;30;20040;-82
2022/03/06 10:59:32;;;;;;;16.90;11.15;;;;;;;;;;4770993;30;20402;-84
2022/03/06 11:02:20;;;;;;;5.90;4.18;;;;;;;;;;4778409;30;20044;-82
2022/03/06 11:05:06;;;;;;;20.15;13.63;;;;;;;;;;4772833;30;20056;-84
2022/03/06 11:07:51;;;;;;;14.23;8.73;;;;;;;;;;4770639;30;20115;-88
2022/03/06 11:10:40;;;;;;;14.18;10.25;;;;;;;;;;4770535;30;20052;-86
2022/03/06 11:13:27;;;;;;;18.85;11.18;;;;;;;;;;4770778;30;20063;-86
2022/03/06 11:16:13;;;;;;;20.05;12.40;;;;;;;;;;4770857;30;20056;-88
2022/03/06 11:18:59;;;;;;;19.80;13.30;;;;;;;;;;4776258;29;20040;-87
2022/03/06 11:21:48;;;;;;;54.67;22.33;;;;;;;;;;4794088;29;20035;-86
2022/03/06 11:24:36;;;;;;;19.38;9.45;;;;;;;;;;4787398;30;20051;-88
2022/03/06 11:27:42;;;;;;;43.67;27.70;;;;;;;;;;4770956;30;20055;-86
2022/03/06 11:30:28;;;;;;;5.45;4.68;;;;;;;;;;4771048;30;20486;-89
2022/03/06 11:33:13;;;;;;;14.35;9.40;;;;;;;;;;4771653;30;20055;-86
2022/03/06 11:36:18;;;;;;;20.75;13.00;;;;;;;;;;4777093;30;20056;-88
2022/03/06 11:39:03;;;;;;;38.67;23.83;;;;;;;;;;4770811;30;20052;-83
2022/03/06 11:41:48;;;;;;;27.23;17.98;;;;;;;;;;4770136;30;20055;-82
2022/03/06 11:44:38;;;;;;;21.10;13.23;;;;;;;;;;4771067;30;20055;-81
2022/03/06 11:47:50;;;;;;;11.75;8.20;;;;;;;;;;4775732;30;20051;-82
2022/03/06 11:50:37;;;;;;;22.33;14.88;;;;;;;;;;4764472;30;20056;-82
2022/03/06 11:53:50;;;;;;;15.15;8.35;;;;;;;;;;4773352;30;20044;-82
2022/03/06 11:56:34;;;;;;;44.40;19.50;;;;;;;;;;4780835;30;20043;-81
2022/03/06 11:59:22;;;;;;;23.30;13.65;;;;;;;;;;4776721;30;20487;-83
2022/03/06 12:02:18;;;;;;;26.60;15.75;;;;;;;;;;4773180;30;20052;-82
2022/03/06 12:05:03;;;;;;;13.00;9.20;;;;;;;;;;4773630;30;20052;-81
2022/03/06 12:07:50;;;;;;;35.55;23.08;;;;;;;;;;4773275;30;20056;-82
2022/03/06 12:10:35;;;;;;;35.90;22.05;;;;;;;;;;4778134;30;20055;-81
2022/03/06 12:13:22;;;;;;;31.67;19.48;;;;;;;;;;4772963;30;20056;-82
2022/03/06 12:16:08;;;;;;;22.70;13.73;;;;;;;;;;4779076;30;20048;-84
2022/03/06 12:19:02;;;;;;;29.98;20.20;;;;;;;;;;4773355;30;20051;-84
2022/03/06 12:21:47;;;;;;;36.03;18.45;;;;;;;;;;4773166;30;20043;-83
2022/03/06 12:24:32;;;;;;;36.00;20.67;;;;;;;;;;4773147;30;20048;-83
2022/03/06 12:27:25;;;;;;;36.13;21.17;;;;;;;;;;4774444;30;20067;-84
2022/03/06 12:30:17;;;;;;;32.00;18.20;;;;;;;;;;4774854;30;20048;-83
2022/03/06 12:33:38;;;;;;;31.50;19.75;;;;;;;;;;4773486;30;20043;-84
2022/03/06 12:36:24;;;;;;;26.15;17.90;;;;;;;;;;4717990;30;20061;-85
2022/03/06 12:39:13;;;;;;;26.80;17.38;;;;;;;;;;4777408;30;20494;-81
2022/03/06 12:41:57;;;;;;;43.67;20.67;;;;;;;;;;4774214;30;20047;-83
2022/03/06 12:44:46;;;;;;;70.00;29.60;;;;;;;;;;4772786;30;20056;-82
2022/03/06 12:47:31;;;;;;;51.95;23.20;;;;;;;;;;4771974;30;20047;-83
2022/03/06 12:50:18;;;;;;;63.80;28.20;;;;;;;;;;4772306;30;20051;-83
2022/03/06 12:53:05;;;;;;;71.13;30.75;;;;;;;;;;4772674;30;20059;-82
2022/03/06 12:55:58;;;;;;;105.63;41.70;;;;;;;;;;4772164;30;20394;-83
2022/03/06 12:58:44;;;;;;;90.68;39.55;;;;;;;;;;4772705;30;20052;-86
2022/03/06 13:01:33;;;;;;;30.67;14.70;;;;;;;;;;4772434;30;20055;-87
2022/03/06 13:04:22;;;;;;;100.72;34.50;;;;;;;;;;4772171;30;20059;-86
2022/03/06 13:07:07;;;;;;;86.20;30.45;;;;;;;;;;4772423;30;20403;-86
2022/03/06 13:09:57;;;;;;;29.90;15.18;;;;;;;;;;4773475;30;20055;-87
2022/03/06 13:12:45;;;;;;;105.93;35.45;;;;;;;;;;4782028;30;20043;-87
2022/03/06 13:15:32;;;;;;;101.13;36.47;;;;;;;;;;4771330;30;20055;-86
2022/03/06 13:18:20;;;;;;;44.30;25.88;;;;;;;;;;4772240;30;20043;-88
2022/03/06 13:21:17;;;;;;;40.70;20.20;;;;;;;;;;4772461;30;20055;-89
2022/03/06 13:24:05;;;;;;;39.58;22.08;;;;;;;;;;4772630;30;20048;-87
2022/03/06 13:26:56;;;;;;;88.88;41.42;;;;;;;;;;4771778;30;20052;-88
2022/03/06 13:29:41;;;;;;;37.45;22.17;;;;;;;;;;4771980;30;20055;-88
2022/03/06 13:32:29;;;;;;;44.42;24.10;;;;;;;;;;4772145;30;20055;-88
2022/03/06 13:35:35;;;;;;;44.60;29.33;;;;;;;;;;4778536;29;20031;-88
2022/03/06 13:38:27;;;;;;;20.30;12.27;;;;;;;;;;4795406;29;20040;-87
2022/03/06 13:41:13;;;;;;;20.10;13.63;;;;;;;;;;4791463;30;20035;-86
2022/03/06 13:43:59;;;;;;;25.95;16.08;;;;;;;;;;4771751;30;20051;-85
2022/03/06 13:46:45;;;;;;;32.08;19.38;;;;;;;;;;4771606;30;20052;-87
2022/03/06 13:49:35;;;;;;;38.63;20.35;;;;;;;;;;4772110;30;20060;-85
2022/03/06 13:52:32;;;;;;;23.05;14.55;;;;;;;;;;4771385;30;20052;-88
2022/03/06 13:55:18;;;;;;;35.95;16.08;;;;;;;;;;4779089;30;20051;-88
2022/03/06 13:58:07;;;;;;;31.70;15.88;;;;;;;;;;4771002;30;20416;-88
2022/03/06 14:01:02;;;;;;;25.25;15.27;;;;;;;;;;4771516;30;20399;-83
2022/03/06 14:03:47;;;;;;;30.25;18.67;;;;;;;;;;4771532;30;20048;-83
2022/03/06 14:06:42;;;;;;;28.92;17.40;;;;;;;;;;4771489;30;20047;-81
2022/03/06 14:09:29;;;;;;;25.52;15.43;;;;;;;;;;4771270;30;20056;-82
2022/03/06 14:12:16;;;;;;;19.75;11.88;;;;;;;;;;4771829;30;20466;-83
2022/03/06 14:15:01;;;;;;;23.30;13.68;;;;;;;;;;4771267;30;20051;-82
2022/03/06 14:17:53;;;;;;;19.63;11.75;;;;;;;;;;4771450;30;20051;-82
2022/03/06 14:20:46;;;;;;;25.23;15.40;;;;;;;;;;4771283;30;20059;-82
2022/03/06 14:23:31;;;;;;;29.15;18.60;;;;;;;;;;4757777;30;20055;-82
2022/03/06 14:26:25;;;;;;;56.30;32.42;;;;;;;;;;4771198;30;20056;-85
2022/03/06 14:29:16;;;;;;;107.68;60.92;;;;;;;;;;4777453;30;20051;-82
2022/03/06 14:32:02;;;;;;;144.20;75.53;;;;;;;;;;4771148;30;20051;-80
2022/03/06 14:34:48;;;;;;;157.32;76.97;;;;;;;;;;4775900;30;20043;-85
2022/03/06 14:37:37;;;;;;;240.35;116.95;;;;;;;;;;4762479;30;20043;-82
2022/03/06 14:40:23;;;;;;;146.07;70.30;;;;;;;;;;4772435;30;20055;-83
2022/03/06 14:43:08;;;;;;;127.63;61.53;;;;;;;;;;4775729;30;20048;-83
2022/03/06 14:45:54;;;;;;;62.45;34.10;;;;;;;;;;4771229;30;20056;-82
2022/03/06 14:48:40;;;;;;;112.13;60.05;;;;;;;;;;4771137;30;20047;-83
2022/03/06 14:51:29;;;;;;;71.38;40.20;;;;;;;;;;4770650;30;20056;-83
2022/03/06 14:54:14;;;;;;;34.85;21.65;;;;;;;;;;4770742;30;20048;-82
2022/03/06 14:56:59;;;;;;;49.80;28.67;;;;;;;;;;4771262;30;20059;-82
2022/03/06 14:59:45;;;;;;;27.85;18.55;;;;;;;;;;4771823;30;20047;-82
2022/03/06 15:02:31;;;;;;;35.90;22.13;;;;;;;;;;4774683;30;20063;-82
2022/03/06 15:05:16;;;;;;;48.72;28.38;;;;;;;;;;4776924;30;20055;-82
2022/03/06 15:08:02;;;;;;;40.10;24.67;;;;;;;;;;4775930;30;20523;-82
2022/03/06 15:10:49;;;;;;;39.80;23.38;;;;;;;;;;4777140;30;20048;-82
2022/03/06 15:13:35;;;;;;;24.77;15.25;;;;;;;;;;4775694;30;20052;-81
2022/03/06 15:16:21;;;;;;;37.15;20.73;;;;;;;;;;4775424;30;20051;-81
2022/03/06 15:19:06;;;;;;;43.05;26.48;;;;;;;;;;4777279;30;20051;-83
2022/03/06 15:21:55;;;;;;;55.10;31.83;;;;;;;;;;4779561;30;20051;-81
2022/03/06 15:24:40;;;;;;;61.88;36.55;;;;;;;;;;4776754;30;20060;-84
2022/03/06 15:27:27;;;;;;;45.70;26.75;;;;;;;;;;4775006;30;20051;-86
2022/03/06 15:30:12;;;;;;;49.03;28.63;;;;;;;;;;4774656;30;20051;-86
2022/03/06 15:32:58;;;;;;;77.90;41.22;;;;;;;;;;4774109;30;20039;-81
2022/03/06 15:35:43;;;;;;;44.05;23.88;;;;;;;;;;4780245;30;20047;-86
2022/03/06 15:38:29;;;;;;;47.38;28.05;;;;;;;;;;4774847;30;20047;-86
2022/03/06 15:41:15;;;;;;;42.63;27.30;;;;;;;;;;4773907;30;20047;-85
2022/03/06 15:44:02;;;;;;;27.50;16.73;;;;;;;;;;4773668;30;20051;-86
2022/03/06 15:46:48;;;;;;;69.15;35.75;;;;;;;;;;4773963;30;20116;-86
2022/03/06 15:49:33;;;;;;;36.38;19.73;;;;;;;;;;4777851;30;20060;-87
2022/03/06 15:52:21;;;;;;;37.42;20.40;;;;;;;;;;4779627;29;20040;-86
2022/03/06 15:55:06;;;;;;;23.30;11.82;;;;;;;;;;4797028;29;20035;-84
2022/03/06 15:57:53;;;;;;;73.75;34.97;;;;;;;;;;4789692;30;20047;-86
2022/03/06 16:00:39;;;;;;;77.05;36.67;;;;;;;;;;4774670;30;20056;-85
2022/03/06 16:03:24;;;;;;;37.15;20.83;;;;;;;;;;4775703;30;20047;-87
2022/03/06 16:06:10;;;;;;;55.38;31.23;;;;;;;;;;4782092;30;20048;-86
2022/03/06 16:08:56;;;;;;;37.03;21.30;;;;;;;;;;4773904;30;20484;-86
2022/03/06 16:11:41;;;;;;;14.90;9.48;;;;;;;;;;4774451;30;20410;-86
2022/03/06 16:14:28;;;;;;;24.60;15.73;;;;;;;;;;4774228;30;20402;-86
2022/03/06 16:17:13;;;;;;;27.23;16.67;;;;;;;;;;4773739;30;20047;-86
2022/03/06 16:19:59;;;;;;;28.05;17.77;;;;;;;;;;4773716;30;20048;-85
2022/03/06 16:22:45;;;;;;;29.60;18.20;;;;;;;;;;4773594;30;20047;-85